Acton, California
Current Conditions -  °F | °C
As of 5:53 PM on Wednesday 26 Nov 2014 (Local Time) from KPMD Reporting Station
Clear Clear  
Wind Chill: 54°   Ceiling: Unl
Heat Index: 54°   Visibility: 10mi
Dew Point: 10°   Wind: 7mph
Humidity: 17%   Direction: 200°SSW
Pressure: 30.3"   Gusts: NA
Location:  34.47°N, 118.2°W
Report Text: KPMD 270153Z AUTO 20006KT 10SM CLR 12/M12 A3030 RMK AO2 SLP261 T01221122
Loading
Personal Weather Stations






























Interactive Weather Map New forecast layout! Learn more

10-Day Weather Forecast

Advertisements
Track Severe Weather on mobile